Latest Weather Observations for Leonora Airport

IDW60801

Issued at 7:33 am WST Wednesday 29 March 2017 (issued every 30 minutes, with the page automatically refreshed every 10 minutes)

About weather observations | Map of weather stations | Latest weather observations for WA | Other Formats
Station Details ID: 012241 Name: LEONORA AERO Lat: -28.88 Lon: 121.32 Height: 370.0 m
Data from the previous 72 hours. | See also: Recent months at Leonora Airport
Date/Time
WST
Temp
°C
App
Temp
°C
Dew
Point
°C
Rel
Hum
%
Delta-T
°C
Wind Press
QNH
hPa
Press
MSL
hPa
Rain since
9am
mm
Dir  Spd
km/h
Gust
km/h
Spd
kts
Gust
kts
29/07:30am 16.3 10.8 11.9 75 2.4 ESE 32 48 17 26 1021.7 1019.6 0.0
29/07:00am 16.4 12.2 12.4 77 2.2 ESE 26 37 14 20 1021.0 1019.0 0.0
29/06:30am 16.4 12.2 12.4 77 2.2 SE 26 41 14 22 1020.3 1018.3 0.0
29/06:00am 16.4 12.5 12.2 76 2.3 SE 24 35 13 19 1019.8 1017.8 0.0
29/05:30am 16.7 13.1 11.8 73 2.7 SE 22 35 12 19 1019.3 1017.2 0.0
29/05:00am 17.0 12.9 11.3 69 3.1 SE 24 33 13 18 1018.8 1016.7 0.0
29/04:30am 17.5 13.9 10.4 63 3.9 SE 20 28 11 15 1018.1 1016.1 0.0
29/04:00am 18.0 14.3 9.6 58 4.5 SE 19 28 10 15 1017.7 1015.7 0.0
29/03:30am 18.7 14.7 9.2 54 5.1 SE 20 30 11 16 1017.2 1015.2 0.0
29/03:00am 19.5 15.8 9.4 52 5.4 SSE 19 30 10 16 1017.1 1015.1 0.0
29/02:30am 19.6 16.5 10.3 55 5.1 SSE 17 24 9 13 1017.0 1015.0 0.0
29/02:00am 18.6 17.2 13.5 72 2.9 SSE 13 17 7 9 1016.9 1014.8 0.0
29/01:30am 18.0 17.8 15.8 87 1.3 S 11 15 6 8 1016.7 1014.6 0.0
29/01:00am 17.9 18.2 15.9 88 1.2 S 9 11 5 6 1016.5 1014.4 0.0
29/12:30am 17.9 19.2 15.2 84 1.6 S 2 9 1 5 1016.3 1014.2 0.0
29/12:00am 18.3 19.9 15.0 81 2.0 CALM 0 0 0 0 1016.1 1014.0 0.0
 
Date/Time
WST
Temp
°C
App
Temp
°C
Dew
Point
°C
Rel
Hum
%
Delta-T
°C
Wind Press
QNH
hPa
Press
MSL
hPa
Rain since
9am
mm
Dir  Spd
km/h
Gust
km/h
Spd
kts
Gust
kts
28/11:30pm 19.3 20.6 14.1 72 3.0 CALM 0 6 0 3 1015.9 1013.8 0.0
28/11:00pm 20.3 20.2 14.0 67 3.7 NE 7 9 4 5 1015.7 1013.6 0.0
28/10:30pm 20.4 20.9 15.0 71 3.2 NE 6 7 3 4 1015.7 1013.6 0.0
28/10:00pm 20.9 21.2 14.5 67 3.8 NE 6 7 3 4 1015.7 1013.6 0.0
28/09:30pm 21.4 21.6 14.8 66 4.0 NNE 7 9 4 5 1015.7 1013.6 0.0
28/09:00pm 21.8 22.3 14.9 65 4.1 NE 6 7 3 4 1015.7 1013.6 0.0
28/08:30pm 22.6 22.2 14.2 59 5.0 NE 9 13 5 7 1015.6 1013.5 0.0
28/08:00pm 22.7 22.6 15.0 61 4.6 E 9 9 5 5 1015.5 1013.4 0.0
28/07:30pm 23.0 23.0 14.3 58 5.2 SE 7 9 4 5 1015.0 1013.0 0.0
28/07:00pm 23.1 23.1 14.1 57 5.4 SE 7 9 4 5 1014.7 1012.7 0.0
28/06:30pm 24.0 25.1 14.7 56 5.6 NW 2 11 1 6 1014.3 1012.2 0.0
28/06:00pm 26.3 26.3 12.4 42 8.2 WNW 4 7 2 4 1014.1 1012.0 0.0
28/05:30pm 28.2 27.5 9.9 32 10.4 WSW 4 7 2 4 1013.9 1011.8 0.0
28/05:00pm 28.6 27.0 8.8 29 11.1 W 7 15 4 8 1014.0 1011.9 0.0
28/04:30pm 28.7 27.4 9.9 31 10.7 WNW 7 17 4 9 1014.1 1012.0 0.0
28/04:00pm 28.6 26.5 8.3 28 11.3 WSW 9 13 5 7 1014.4 1012.3 0.0
28/03:30pm 28.8 26.9 9.0 29 11.1 WSW 9 17 5 9 1014.5 1012.5 0.0
28/03:00pm 28.2 27.2 9.0 30 10.8 SW 4 13 2 7 1014.6 1012.6 0.0
28/02:30pm 27.7 25.7 10.0 33 10.1 SW 11 19 6 10 1015.0 1013.0 0.0
28/02:00pm 27.3 24.8 9.6 33 10.0 SW 13 20 7 11 1015.3 1013.3 0.0
28/01:30pm 27.3 24.9 11.3 37 9.3 W 15 26 8 14 1015.6 1013.5 0.0
28/01:00pm 26.6 25.4 11.5 39 8.7 SW 9 19 5 10 1016.0 1013.9 0.0
28/12:30pm 26.3 25.3 10.9 38 8.8 SW 7 15 4 8 1016.5 1014.4 0.0
28/12:00pm 25.8 24.6 10.4 38 8.7 WSW 7 15 4 8 1016.8 1014.7 0.0
28/11:30am 25.1 24.2 9.4 37 8.7 ESE 4 9 2 5 1017.2 1015.2 0.0
28/11:00am 24.7 23.7 9.0 37 8.6 NW 4 11 2 6 1017.6 1015.6 0.0
28/10:30am 24.4 23.8 11.7 45 7.3 N 6 13 3 7 1017.9 1015.9 0.0
28/10:00am 23.2 22.2 10.3 44 7.2 NNE 6 11 3 6 1018.1 1016.1 0.0
28/09:30am 22.4 21.0 10.9 48 6.5 NE 9 15 5 8 1018.4 1016.3 0.0
28/09:00am 21.0 19.1 10.5 51 5.8 NNE 11 15 6 8 1018.6 1016.5 0.0
28/08:30am 19.5 18.2 11.3 59 4.6 NE 9 13 5 7 1018.6 1016.5 0.0
28/08:00am 17.9 17.4 12.6 71 3.0 ENE 7 9 4 5 1018.6 1016.5 0.0
28/07:30am 17.0 16.6 12.9 77 2.3 ENE 7 11 4 6 1018.5 1016.4 0.0
28/07:00am 15.7 14.9 12.8 83 1.6 ESE 9 11 5 6 1018.1 1016.1 0.0
28/06:30am 14.3 13.9 12.5 89 1.0 E 6 9 3 5 1018.3 1016.2 0.0
28/06:00am 13.9 13.4 12.5 91 0.8 ESE 7 11 4 6 1017.9 1015.9 0.0
28/05:30am 13.9 13.5 12.3 90 0.9 E 6 7 3 4 1017.7 1015.7 0.0
28/05:00am 14.4 15.2 12.4 88 1.1 CALM 0 6 0 3 1017.7 1015.7 0.0
28/04:30am 14.8 14.5 12.8 88 1.1 E 6 9 3 5 1017.2 1015.2 0.0
28/04:00am 14.7 14.5 13.1 90 0.9 ESE 6 9 3 5 1017.1 1015.1 0.0
28/03:30am 14.7 15.6 12.9 89 1.0 CALM 0 0 0 0 1017.1 1015.1 0.0
28/03:00am 14.8 15.7 12.8 88 1.1 CALM 0 6 0 3 1017.5 1015.5 0.0
28/02:30am 15.1 16.1 13.1 88 1.1 CALM 0 6 0 3 1017.7 1015.7 0.0
28/02:00am 15.4 14.9 13.8 90 0.9 SE 9 11 5 6 1017.9 1015.9 0.0
28/01:30am 15.0 16.1 13.4 90 0.9 CALM 0 0 0 0 1018.0 1016.0 0.0
28/01:00am 15.3 16.4 13.5 89 1.0 CALM 0 2 0 1 1018.4 1016.3 0.0
28/12:30am 15.5 16.5 13.3 87 1.2 CALM 0 0 0 0 1018.3 1016.2 0.0
28/12:00am 15.9 17.0 13.6 86 1.3 CALM 0 0 0 0 1018.4 1016.3 0.0
 
Date/Time
WST
Temp
°C
App
Temp
°C
Dew
Point
°C
Rel
Hum
%
Delta-T
°C
Wind Press
QNH
hPa
Press
MSL
hPa
Rain since
9am
mm
Dir  Spd
km/h
Gust
km/h
Spd
kts
Gust
kts
27/11:30pm 16.2 16.1 13.3 83 1.7 E 6 7 3 4 1018.7 1016.6 0.0
27/11:00pm 17.0 17.2 13.1 78 2.2 ESE 4 7 2 4 1018.7 1016.6 0.0
27/10:30pm 18.0 16.3 12.5 70 3.1 ESE 13 15 7 8 1018.7 1016.6 0.0
27/10:00pm 17.8 17.4 12.9 73 2.8 ESE 7 11 4 6 1018.7 1016.6 0.0
27/09:30pm 18.4 17.6 12.8 70 3.2 ESE 9 11 5 6 1018.6 1016.5 0.0
27/09:00pm 18.4 18.2 13.5 73 2.8 ESE 7 9 4 5 1018.7 1016.6 0.0
27/08:30pm 18.9 18.2 13.3 70 3.2 ESE 9 11 5 6 1018.8 1016.7 0.0
27/08:00pm 19.2 19.1 13.8 71 3.1 ESE 7 11 4 6 1018.6 1016.5 0.0
27/07:30pm 20.0 19.0 13.5 66 3.8 ESE 11 15 6 8 1018.3 1016.2 0.0
27/07:00pm 20.6 19.6 13.3 63 4.2 SE 11 13 6 7 1017.9 1015.9 0.0
27/06:30pm 20.8 20.4 13.0 61 4.5 SE 7 11 4 6 1017.7 1015.7 0.0
27/06:00pm 22.1 21.0 11.8 52 5.9 ESE 9 13 5 7 1017.5 1015.5 0.0
27/05:30pm 22.9 20.8 11.3 48 6.6 ESE 13 19 7 10 1017.4 1015.4 0.0
27/05:00pm 23.5 22.3 11.5 47 6.8 E 9 15 5 8 1017.2 1015.2 0.0
27/04:30pm 23.2 21.7 11.9 49 6.5 E 11 19 6 10 1017.4 1015.4 0.0
27/04:00pm 23.6 22.4 12.9 51 6.3 ESE 11 20 6 11 1017.6 1015.6 0.0
27/03:30pm 23.4 22.0 12.1 49 6.5 ESE 11 22 6 12 1017.8 1015.8 0.0
27/03:00pm 23.2 21.4 12.2 50 6.3 SE 13 20 7 11 1018.1 1016.1 0.0
27/02:30pm 22.9 21.6 12.5 52 6.0 SE 11 20 6 11 1018.3 1016.2 0.0
27/02:00pm 22.5 20.8 12.4 52 5.8 E 13 20 7 11 1018.7 1016.6 0.0
27/01:30pm 22.1 19.7 11.5 51 6.0 E 15 24 8 13 1019.1 1017.0 0.0
27/01:00pm 21.9 19.9 12.7 56 5.3 E 15 22 8 12 1019.7 1017.7 0.0
27/12:30pm 21.4 19.3 12.5 57 5.1 E 15 20 8 11 1020.2 1018.2 0.0
27/12:00pm 20.5 17.9 12.0 58 4.8 E 17 24 9 13 1020.8 1018.8 0.0
27/11:30am 19.9 17.4 12.2 61 4.4 E 17 28 9 15 1021.3 1019.2 0.0
27/11:00am 19.5 16.6 12.3 63 4.1 E 19 28 10 15 1021.7 1019.6 0.0
27/10:30am 18.9 15.3 11.7 63 4.0 E 22 35 12 19 1021.9 1019.9 0.0
27/10:00am 18.7 14.9 11.3 62 4.1 E 22 33 12 18 1022.0 1020.0 0.0
27/09:30am 18.6 14.8 11.2 62 4.1 ESE 22 30 12 16 1022.0 1020.0 0.0
27/09:00am 17.8 13.9 10.7 63 3.9 ESE 22 35 12 19 1021.9 1019.9 0.0
27/08:30am 17.3 12.4 10.0 62 3.9 ESE 26 35 14 19 1021.7 1019.6 0.0
27/08:00am 17.3 12.8 10.2 63 3.8 ESE 24 32 13 17 1021.3 1019.2 0.0
27/07:30am 16.3 12.2 10.2 67 3.3 ESE 22 35 12 19 1021.2 1019.1 0.0
27/07:00am 15.8 12.2 9.7 67 3.2 SE 19 28 10 15 1021.0 1019.0 0.0
27/06:30am 15.0 12.0 9.1 68 3.1 SE 15 20 8 11 1020.5 1018.5 0.0
27/06:00am 15.2 11.7 8.9 66 3.3 SE 17 22 9 12 1020.1 1018.1 0.0
27/05:30am 15.5 12.7 8.7 64 3.5 SE 13 19 7 10 1019.8 1017.8 0.0
27/05:00am 16.0 12.9 8.7 62 3.8 SE 15 20 8 11 1019.5 1017.5 0.0
27/04:30am 16.2 13.6 9.2 63 3.7 SE 13 17 7 9 1019.4 1017.4 0.0
27/04:00am 16.2 14.0 9.4 64 3.6 SE 11 15 6 8 1019.0 1016.9 0.0
27/03:30am 16.8 14.2 9.5 62 3.9 SE 13 17 7 9 1018.7 1016.6 0.0
27/03:00am 16.8 14.9 10.4 66 3.5 SSE 11 19 6 10 1018.4 1016.3 0.0
27/02:30am 17.2 15.4 10.8 66 3.5 SSE 11 17 6 9 1018.0 1016.0 0.0
27/02:00am 17.8 15.6 10.9 64 3.8 SSE 13 17 7 9 1017.7 1015.7 0.0
27/01:30am 18.3 16.7 11.4 64 3.8 SE 11 17 6 9 1017.7 1015.7 0.0
27/01:00am 18.0 16.9 11.8 67 3.5 SE 9 11 5 6 1017.7 1015.7 0.0
27/12:30am 18.7 17.5 11.5 63 4.0 SE 9 13 5 7 1017.7 1015.7 0.0
27/12:00am 18.9 17.7 11.5 62 4.1 SSE 9 13 5 7 1017.4 1015.4 0.0
 
Date/Time
WST
Temp
°C
App
Temp
°C
Dew
Point
°C
Rel
Hum
%
Delta-T
°C
Wind Press
QNH
hPa
Press
MSL
hPa
Rain since
9am
mm
Dir  Spd
km/h
Gust
km/h
Spd
kts
Gust
kts
26/11:30pm 19.6 18.1 11.9 61 4.3 SSE 11 17 6 9 1017.2 1015.2 0.0
26/11:00pm 19.5 18.6 12.5 64 4.0 SSE 9 13 5 7 1017.1 1015.1 0.0
26/10:30pm 20.3 18.6 12.5 61 4.5 SSE 13 15 7 8 1017.1 1015.1 0.0
26/10:00pm 20.5 19.3 12.7 61 4.5 SSE 11 17 6 9 1016.7 1014.6 0.0
26/09:30pm 21.7 19.2 12.3 55 5.4 SSE 17 32 9 17 1016.6 1014.5 0.0
26/09:00pm 21.8 20.1 12.6 56 5.3 S 13 22 7 12 1016.2 1014.1 0.0
26/08:30pm 21.2 20.6 13.4 61 4.6 SSE 9 11 5 6 1015.9 1013.8 0.0
26/08:00pm 21.7 21.0 13.1 58 5.0 S 9 11 5 6 1015.7 1013.6 0.0
26/07:30pm 22.8 21.5 12.4 52 6.0 S 11 17 6 9 1015.1 1013.1 0.0
26/07:00pm 23.8 22.7 12.1 48 6.8 SSW 9 13 5 7 1014.4 1012.3 0.0
26/06:30pm 25.0 22.9 11.2 42 7.9 SSW 13 17 7 9 1013.7 1011.6 0.0
26/06:00pm 26.0 24.8 12.8 44 7.8 SW 11 15 6 8 1013.3 1011.2 0.0
26/05:30pm 27.5 24.2 11.5 37 9.3 WSW 20 28 11 15 1012.7 1010.6 0.0
26/05:00pm 28.0 24.2 12.4 38 9.2 WSW 24 33 13 18 1012.1 1010.1 0.0
26/04:30pm 28.3 24.9 13.8 41 8.8 WSW 24 32 13 17 1011.8 1009.7 0.0
26/04:00pm 28.6 25.2 14.8 43 8.5 WSW 26 39 14 21 1011.6 1009.5 0.0
26/03:30pm 28.8 24.6 13.5 39 9.2 WSW 28 41 15 22 1011.4 1009.3 0.0
26/03:00pm 29.1 24.4 13.3 37 9.5 WSW 30 39 16 21 1011.1 1009.0 0.0
26/02:30pm 29.8 27.7 16.2 43 8.6 WSW 22 37 12 20 1010.8 1008.7 0.0
26/02:00pm 29.3 24.9 15.1 42 8.8 W 32 43 17 23 1010.6 1008.5 0.0
26/01:30pm 29.2 26.8 17.4 49 7.6 W 26 35 14 19 1010.4 1008.3 0.0
26/01:00pm 29.1 26.3 17.3 49 7.6 WSW 28 41 15 22 1010.6 1008.5 0.0
26/12:30pm 28.7 27.1 19.3 56 6.2 W 26 33 14 18 1010.8 1008.7 0.0
26/12:00pm 27.5 25.7 18.8 59 5.7 WNW 26 37 14 20 1011.0 1008.9 0.0
26/11:30am 27.4 26.8 19.7 63 5.1 W 22 39 12 21 1011.2 1009.1 0.0
26/11:00am 26.8 26.5 20.4 68 4.3 W 22 30 12 16 1011.5 1009.4 0.0
26/10:30am 26.0 25.3 19.6 68 4.2 W 22 28 12 15 1011.7 1009.6 0.0
26/10:00am 24.9 25.3 19.9 74 3.3 WNW 17 20 9 11 1011.9 1009.8 0.0
26/09:34am 23.4 24.4 20.3 83 2.0 WNW 15 20 8 11 1012.1 1010.1 0.0
26/09:30am 23.5 24.4 20.8 85 1.8 WNW 17 20 9 11 1012.2 1010.2 0.0
26/09:00am 22.4 23.2 21.4 94 0.7 WNW 19 26 10 14 1012.3 1010.3 2.8
26/08:30am 21.4 23.0 21.4 100 0.0 WNW 15 20 8 11 1012.4 1010.4 2.8
26/08:00am 20.9 22.2 20.9 100 0.0 WNW 15 20 8 11 1012.3 1010.3 2.8

Other Formats:

Comma delimited format used in spreadsheet applications
http://www.bom.gov.au/fwo/IDW60801/IDW60801.94450.axf

JavaScript Object Notation format (JSON) in row-major order
http://www.bom.gov.au/fwo/IDW60801/IDW60801.94450.json